Terminal Aerodrome Forecast
Issued by NWS Charleston, WV

Current Version | Previous Version | Text Only | Print | Product List | Glossary Off
Versions: 1 2 3 4 5 6 7 8 9 10 11 12 13 14 15 16 17 18 19 20 21 22

125
FTUS41 KRLX 202340
TAFEKN
TAF
KEKN 202340Z 2100/2124 VRB02KT P6SM -SHRA VCTS OVC050CB
     FM210300 VRB03KT 5SM -SHRA VCTS OVC030CB
     FM210600 VRB02KT 2SM -SHRA OVC008
     FM211400 VRB03KT 4SM -SHRA OVC006
     FM211600 VRB03KT P6SM BKN008
     FM211800 31004KT P6SM BKN011
     FM212100 30006KT P6SM BKN035=

USA.gov is the U.S. government's official web portal to all federal, state and local government web resources and services.